Time;durP1;ratioP1;P1;durP2;ratioP2;P2;SDS_P1;SDS_P2;PMS_P1;PMS_P2;Temp;Humidity;BMP_temperature;BMP_pressure;BME280_temperature;BME280_humidity;BME280_pressure;Samples;Min_cycle;Max_cycle;Signal;HPM_P1;HPM_P2
2022/09/12 00:02:24;;;;;;;42.65;7.70;;;;;;;17.27;100.00;98123.09;5030930;28;20534;-57
2022/09/12 00:04:50;;;;;;;38.35;7.15;;;;;;;17.15;100.00;98111.59;5038649;28;20753;-57
2022/09/12 00:07:15;;;;;;;33.85;6.93;;;;;;;16.90;100.00;98116.78;5038784;28;20441;-57
2022/09/12 00:09:41;;;;;;;34.55;6.60;;;;;;;17.00;100.00;98117.88;5032646;28;20024;-57
2022/09/12 00:12:06;;;;;;;38.42;6.65;;;;;;;17.01;100.00;98114.28;5040272;28;20045;-57
2022/09/12 00:14:32;;;;;;;34.90;6.45;;;;;;;16.82;100.00;98109.34;5042859;28;20032;-59
2022/09/12 00:16:58;;;;;;;37.92;6.65;;;;;;;16.83;100.00;98108.41;5020837;28;20033;-59
2022/09/12 00:19:25;;;;;;;37.72;6.70;;;;;;;16.93;100.00;98106.06;5041840;28;20031;-58
2022/09/12 00:21:50;;;;;;;37.97;7.20;;;;;;;16.73;100.00;98105.50;5036348;28;20095;-57
2022/09/12 00:24:16;;;;;;;42.58;7.22;;;;;;;16.69;100.00;98098.75;5041826;28;20032;-57
2022/09/12 00:26:41;;;;;;;37.83;6.75;;;;;;;16.50;100.00;98104.34;5033016;28;20546;-58
2022/09/12 00:29:07;;;;;;;37.53;7.05;;;;;;;16.40;100.00;98118.22;5037853;28;20029;-57
2022/09/12 00:31:32;;;;;;;43.17;7.50;;;;;;;16.45;100.00;98105.56;5032014;28;20029;-58
2022/09/12 00:34:00;;;;;;;33.58;7.05;;;;;;;16.26;100.00;98108.53;5039701;28;20390;-58
2022/09/12 00:36:26;;;;;;;59.58;8.00;;;;;;;16.14;100.00;98110.16;5038820;28;20037;-57
2022/09/12 00:38:53;;;;;;;44.90;7.35;;;;;;;16.41;100.00;98106.72;5039714;28;20036;-58
2022/09/12 00:41:23;;;;;;;65.35;8.15;;;;;;;15.67;100.00;98113.84;5038835;28;20776;-57
2022/09/12 00:44:00;;;;;;;44.47;7.25;;;;;;;16.33;100.00;98102.78;5039193;28;20013;-58
2022/09/12 00:46:45;;;;;;;49.10;6.95;;;;;;;16.37;100.00;98091.09;5038591;28;20045;-57
2022/09/12 00:49:14;;;;;;;38.25;6.28;;;;;;;16.89;100.00;98094.88;5039100;28;20068;-58
2022/09/12 00:51:45;;;;;;;38.95;6.32;;;;;;;16.48;100.00;98098.31;5034751;28;20049;-58
2022/09/12 00:54:15;;;;;;;35.13;6.53;;;;;;;16.10;100.00;98106.00;5040082;28;20144;-57
2022/09/12 00:56:44;;;;;;;62.03;7.45;;;;;;;16.28;100.00;98102.22;5038265;28;20148;-58
2022/09/12 00:59:26;;;;;;;44.70;6.85;;;;;;;16.03;100.00;98104.69;5038672;28;20035;-58
2022/09/12 01:01:51;;;;;;;36.50;6.70;;;;;;;16.12;100.00;98096.22;5033061;28;20029;-58
2022/09/12 01:04:20;;;;;;;47.08;7.18;;;;;;;16.41;100.00;98099.66;5036220;28;20036;-57
2022/09/12 01:06:48;;;;;;;40.22;6.85;;;;;;;16.27;100.00;98091.81;5042061;28;20147;-59
2022/09/12 01:09:17;;;;;;;34.38;6.03;;;;;;;16.37;100.00;98092.91;5042262;28;20036;-59
2022/09/12 01:11:45;;;;;;;34.88;6.18;;;;;;;16.74;100.00;98086.16;5037733;28;20478;-60
2022/09/12 01:14:12;;;;;;;37.45;6.60;;;;;;;16.28;100.00;98091.69;5036637;28;20033;-60
2022/09/12 01:16:38;;;;;;;36.80;6.32;;;;;;;16.33;100.00;98086.16;5029890;28;20044;-58
2022/09/12 01:19:19;;;;;;;34.15;6.15;;;;;;;16.60;100.00;98078.28;5033350;28;20064;-58
2022/09/12 01:22:22;;;;;;;43.47;7.40;;;;;;;15.88;100.00;98085.41;5036843;28;20126;-59
2022/09/12 01:25:11;;;;;;;39.20;6.57;;;;;;;16.28;100.00;98075.91;5037664;28;20053;-58
2022/09/12 01:28:19;;;;;;;34.80;6.35;;;;;;;15.76;100.00;98076.50;5038035;28;20072;-60
2022/09/12 01:31:03;;;;;;;43.17;6.65;;;;;;;16.02;100.00;98071.44;5038353;28;20037;-59
2022/09/12 01:33:58;;;;;;;48.15;6.72;;;;;;;15.92;100.00;98066.75;5038241;28;20081;-59
2022/09/12 01:36:47;;;;;;;38.28;5.97;;;;;;;15.78;100.00;98067.56;5040237;28;20041;-58
2022/09/12 01:39:23;;;;;;;40.08;6.18;;;;;;;15.64;100.00;98067.56;5040340;28;20116;-58
2022/09/12 01:42:02;;;;;;;58.33;6.38;;;;;;;15.92;100.00;98066.75;5039907;28;20042;-58
2022/09/12 01:44:57;;;;;;;52.25;6.75;;;;;;;15.70;100.00;98061.09;5042395;28;20033;-57
2022/09/12 01:47:38;;;;;;;71.80;7.05;;;;;;;15.32;100.00;98072.09;5038972;28;20037;-57
2022/09/12 01:50:06;;;;;;;131.18;8.55;;;;;;;15.98;100.00;98068.16;5040563;28;20528;-57
2022/09/12 01:52:40;;;;;;;158.52;8.48;;;;;;;15.75;100.00;98069.53;5039957;28;20052;-59
2022/09/12 01:55:30;;;;;;;163.38;9.35;;;;;;;16.36;100.00;98060.47;5041488;28;20049;-57
2022/09/12 01:58:04;;;;;;;278.92;10.25;;;;;;;15.82;100.00;98055.09;5041217;28;20039;-59
2022/09/12 02:00:36;;;;;;;126.78;8.32;;;;;;;16.37;100.00;98053.41;5040916;28;20323;-59
2022/09/12 02:03:16;;;;;;;219.50;9.05;;;;;;;15.68;100.00;98050.66;5043340;28;20646;-60
2022/09/12 02:05:47;;;;;;;87.22;6.80;;;;;;;16.42;100.00;98047.88;5042040;28;20041;-58
2022/09/12 02:08:24;;;;;;;86.87;6.60;;;;;;;16.39;100.00;98051.53;5041002;28;20068;-58
2022/09/12 02:10:59;;;;;;;173.20;8.98;;;;;;;16.35;100.00;98048.25;5038590;28;20029;-57
2022/09/12 02:13:27;;;;;;;92.05;7.95;;;;;;;14.90;100.00;98065.78;5039270;28;20033;-59
2022/09/12 02:16:06;;;;;;;85.03;7.07;;;;;;;15.77;100.00;98062.44;5042672;28;20034;-59
2022/09/12 02:18:33;;;;;;;56.38;7.15;;;;;;;15.94;100.00;98062.22;5041193;28;20399;-58
2022/09/12 02:21:00;;;;;;;54.33;7.10;;;;;;;16.21;100.00;98056.19;5040006;28;20178;-57
2022/09/12 02:23:30;;;;;;;56.85;6.85;;;;;;;16.10;100.00;98042.84;5040305;28;20020;-58
2022/09/12 02:26:01;;;;;;;30.63;5.60;;;;;;;16.50;100.00;98046.41;5040985;28;20033;-57
2022/09/12 02:28:32;;;;;;;51.23;5.73;;;;;;;15.82;100.00;98041.94;5037592;28;20025;-59
2022/09/12 02:31:25;;;;;;;57.63;6.70;;;;;;;15.39;100.00;98060.28;5040589;28;20302;-58
2022/09/12 02:34:27;;;;;;;50.40;5.53;;;;;;;16.17;100.00;98050.28;5043908;28;20737;-57
2022/09/12 02:36:58;;;;;;;40.33;5.97;;;;;;;16.43;100.00;98039.00;4952096;28;20047;-58
2022/09/12 02:39:24;;;;;;;67.88;6.38;;;;;;;16.36;100.00;98038.59;5041702;28;20039;-57
2022/09/12 02:41:51;;;;;;;39.33;6.32;;;;;;;16.50;100.00;98035.88;5039001;28;20036;-59
2022/09/12 02:44:16;;;;;;;32.40;5.63;;;;;;;16.03;100.00;98041.53;5041620;28;20029;-57
2022/09/12 02:46:47;;;;;;;45.63;6.15;;;;;;;16.18;100.00;98030.91;5038714;28;20048;-57
2022/09/12 02:49:13;;;;;;;89.90;5.95;;;;;;;15.68;100.00;98039.28;5042546;28;20032;-58
2022/09/12 02:51:39;;;;;;;66.63;6.20;;;;;;;16.27;100.00;98028.66;5041184;28;20121;-57
2022/09/12 02:54:06;;;;;;;93.15;5.50;;;;;;;16.12;100.00;98025.16;5039285;28;20032;-57
2022/09/12 02:56:31;;;;;;;93.20;6.43;;;;;;;15.82;100.00;98033.22;5038712;28;20576;-57
2022/09/12 02:59:03;;;;;;;89.35;7.80;;;;;;;15.92;100.00;98032.53;5044314;28;20542;-57
2022/09/12 03:01:37;;;;;;;135.98;7.30;;;;;;;15.14;100.00;98040.72;5039776;28;20025;-59
2022/09/12 03:04:18;;;;;;;192.57;7.78;;;;;;;15.68;100.00;98039.28;5039608;28;20171;-59
2022/09/12 03:06:46;;;;;;;311.15;8.98;;;;;;;14.89;100.00;98048.31;5040808;28;20052;-58
2022/09/12 03:09:25;;;;;;;258.25;9.57;;;;;;;14.95;100.00;98056.72;5040012;28;20044;-59
2022/09/12 03:12:15;;;;;;;152.13;7.55;;;;;;;15.57;100.00;98046.03;5042086;28;20072;-57
2022/09/12 03:15:08;;;;;;;330.75;9.77;;;;;;;15.92;100.00;98035.19;5040595;28;20036;-58
2022/09/12 03:17:36;;;;;;;153.77;7.93;;;;;;;15.18;100.00;98050.13;5040519;28;20047;-59
2022/09/12 03:20:04;;;;;;;369.60;11.38;;;;;;;15.49;100.00;98048.28;5040318;28;20032;-57
2022/09/12 03:22:50;;;;;;;224.15;9.80;;;;;;;14.91;100.00;98057.00;5036023;28;20051;-59
2022/09/12 03:25:19;;;;;;;270.05;9.73;;;;;;;14.74;100.00;98050.94;5034950;28;20106;-59
2022/09/12 03:28:05;;;;;;;152.82;7.22;;;;;;;14.60;100.00;98056.09;5042571;28;20137;-57
2022/09/12 03:30:30;;;;;;;196.32;8.13;;;;;;;15.39;100.00;98039.28;5040201;28;20041;-58
2022/09/12 03:32:56;;;;;;;163.57;7.78;;;;;;;15.43;100.00;98048.66;5039111;28;20029;-58
2022/09/12 03:35:23;;;;;;;136.50;8.18;;;;;;;15.35;100.00;98050.91;5040240;28;20273;-58
2022/09/12 03:37:50;;;;;;;75.50;6.97;;;;;;;15.47;100.00;98044.91;5038825;28;20063;-56
2022/09/12 03:40:15;;;;;;;110.78;7.43;;;;;;;15.40;100.00;98041.81;5040421;28;20025;-57
2022/09/12 03:42:41;;;;;;;75.00;6.07;;;;;;;15.07;100.00;98039.41;5039417;28;20102;-57
2022/09/12 03:45:07;;;;;;;30.10;5.32;;;;;;;15.57;100.00;98030.28;5039256;28;20107;-58
2022/09/12 03:47:33;;;;;;;57.70;6.10;;;;;;;15.60;100.00;98032.72;5040401;28;20119;-58
2022/09/12 03:49:58;;;;;;;112.32;7.05;;;;;;;15.26;100.00;98035.69;5036676;28;20100;-57
2022/09/12 03:52:24;;;;;;;50.70;5.90;;;;;;;15.43;100.00;98038.97;5035318;28;20418;-58
2022/09/12 03:54:49;;;;;;;33.60;5.40;;;;;;;15.67;100.00;98040.22;5038621;28;20029;-57
2022/09/12 03:57:15;;;;;;;36.90;5.75;;;;;;;15.77;100.00;98036.13;5037259;28;20044;-57
2022/09/12 03:59:40;;;;;;;108.25;6.85;;;;;;;15.57;100.00;98040.78;5040059;28;20027;-60
2022/09/12 04:02:06;;;;;;;51.25;6.65;;;;;;;15.55;100.00;98037.41;5041219;28;20036;-58
2022/09/12 04:04:32;;;;;;;56.58;6.70;;;;;;;15.47;100.00;98050.16;5036082;28;20848;-58
2022/09/12 04:06:57;;;;;;;53.83;6.13;;;;;;;15.71;100.00;98031.19;5037612;28;20033;-58
2022/09/12 04:09:23;;;;;;;92.75;7.57;;;;;;;15.61;100.00;98038.81;5040061;28;20036;-59
2022/09/12 04:11:48;;;;;;;120.35;7.70;;;;;;;15.91;100.00;98032.63;5039590;28;20084;-58
2022/09/12 04:14:13;;;;;;;89.90;6.45;;;;;;;15.77;100.00;98036.97;5035517;28;20039;-59
2022/09/12 04:16:39;;;;;;;145.50;7.72;;;;;;;15.97;100.00;98033.09;5037414;28;20033;-59
2022/09/12 04:19:04;;;;;;;60.50;6.28;;;;;;;14.58;100.00;98031.72;5040373;28;20039;-58
2022/09/12 04:21:30;;;;;;;49.55;6.05;;;;;;;15.26;100.00;98046.19;5038992;28;20721;-59
2022/09/12 04:23:55;;;;;;;56.28;7.05;;;;;;;15.78;100.00;98032.56;5036998;28;20112;-59
2022/09/12 04:26:21;;;;;;;128.57;6.75;;;;;;;15.80;100.00;98038.56;5037531;28;20047;-58
2022/09/12 04:28:47;;;;;;;41.20;5.88;;;;;;;16.03;100.00;98041.53;5042626;28;20033;-57
2022/09/12 04:31:21;;;;;;;97.88;7.00;;;;;;;15.83;100.00;98035.75;5037945;28;20070;-57
2022/09/12 04:33:51;;;;;;;77.05;6.80;;;;;;;15.50;100.00;98043.88;5045977;28;20359;-58
2022/09/12 04:36:17;;;;;;;82.30;7.00;;;;;;;15.33;100.00;98047.50;5041809;28;20171;-58
2022/09/12 04:38:44;;;;;;;114.03;6.88;;;;;;;15.43;100.00;98038.97;5036420;28;20025;-59
2022/09/12 04:41:40;;;;;;;39.60;6.18;;;;;;;15.91;100.00;98024.75;5033456;28;20114;-58
2022/09/12 04:44:10;;;;;;;53.58;6.65;;;;;;;15.57;100.00;98027.66;5016685;28;20708;-57
2022/09/12 04:46:38;;;;;;;46.53;7.03;;;;;;;15.90;100.00;98042.31;5036672;28;20032;-57
2022/09/12 04:49:04;;;;;;;66.80;6.63;;;;;;;15.22;100.00;98035.88;5038858;28;20120;-58
2022/09/12 04:51:32;;;;;;;52.85;6.90;;;;;;;15.72;100.00;98033.75;5033857;28;20067;-57
2022/09/12 04:54:05;;;;;;;80.30;6.53;;;;;;;15.35;100.00;98035.16;5036651;28;20120;-58
2022/09/12 04:56:30;;;;;;;38.80;6.38;;;;;;;14.97;100.00;98046.13;5034293;28;20116;-57
2022/09/12 04:59:00;;;;;;;50.38;6.63;;;;;;;15.17;100.00;98043.16;5035690;28;20088;-58
2022/09/12 05:01:27;;;;;;;50.95;6.53;;;;;;;15.31;100.00;98038.88;5039933;28;20063;-57
2022/09/12 05:03:53;;;;;;;49.78;7.00;;;;;;;15.94;100.00;98038.56;5042265;28;20111;-57
2022/09/12 05:06:30;;;;;;;35.80;6.45;;;;;;;15.05;100.00;98046.50;5041220;28;20713;-62
2022/09/12 05:08:57;;;;;;;47.78;6.15;;;;;;;15.03;100.00;98057.13;5043339;28;20074;-59
2022/09/12 05:11:25;;;;;;;51.17;6.63;;;;;;;15.17;100.00;98056.31;5040499;28;20502;-58
2022/09/12 05:13:51;;;;;;;45.97;6.53;;;;;;;14.84;100.00;98067.84;5047006;28;20487;-59
2022/09/12 05:16:17;;;;;;;44.03;5.85;;;;;;;15.92;100.00;98045.69;5044086;28;20081;-59
2022/09/12 05:18:44;;;;;;;32.85;6.25;;;;;;;15.60;100.00;98040.59;5040791;28;20537;-59
2022/09/12 05:21:12;;;;;;;37.70;6.40;;;;;;;16.09;100.00;98051.69;5039017;28;20042;-58
2022/09/12 05:23:38;;;;;;;36.17;6.70;;;;;;;15.41;100.00;98050.53;5044241;28;20021;-59
2022/09/12 05:26:05;;;;;;;24.50;5.70;;;;;;;16.03;100.00;98049.44;5045395;28;20029;-59
2022/09/12 05:28:33;;;;;;;36.63;6.20;;;;;;;16.00;100.00;98047.84;5041746;28;20844;-57
2022/09/12 05:31:03;;;;;;;59.25;7.10;;;;;;;16.34;100.00;98057.09;5042973;28;20139;-58
2022/09/12 05:33:29;;;;;;;34.00;6.07;;;;;;;16.23;100.00;98053.44;5040087;28;20372;-57
2022/09/12 05:35:54;;;;;;;48.35;6.85;;;;;;;16.33;100.00;98044.88;5039915;28;20608;-58
2022/09/12 05:38:19;;;;;;;38.88;6.18;;;;;;;16.20;100.00;98057.13;5038418;28;20028;-58
2022/09/12 05:40:45;;;;;;;39.47;6.57;;;;;;;16.80;100.00;98055.06;5040247;28;20032;-57
2022/09/12 05:43:13;;;;;;;36.60;5.75;;;;;;;16.62;100.00;98050.06;5023955;28;20515;-56
2022/09/12 05:45:40;;;;;;;29.33;5.85;;;;;;;16.77;100.00;98049.03;5042188;28;20838;-58
2022/09/12 05:48:05;;;;;;;28.33;4.55;;;;;;;16.60;100.00;98045.81;5043333;28;20651;-56
2022/09/12 05:50:31;;;;;;;24.45;4.88;;;;;;;16.65;100.00;98044.59;5045711;28;20033;-56
2022/09/12 05:52:57;;;;;;;41.65;6.00;;;;;;;17.05;100.00;98047.25;5041899;28;20025;-58
2022/09/12 05:55:23;;;;;;;34.47;5.40;;;;;;;17.38;100.00;98043.28;5039639;28;20068;-58
2022/09/12 05:57:49;;;;;;;33.08;5.50;;;;;;;17.41;100.00;98040.47;5040176;28;20040;-58
2022/09/12 06:00:15;;;;;;;41.42;5.50;;;;;;;16.68;100.00;98038.28;5046712;28;20031;-58
2022/09/12 06:02:41;;;;;;;25.08;5.00;;;;;;;17.21;100.00;98038.34;5042265;28;20021;-58
2022/09/12 06:05:06;;;;;;;31.83;5.70;;;;;;;16.83;100.00;98036.47;5040902;28;20032;-58
2022/09/12 06:07:32;;;;;;;30.30;5.25;;;;;;;17.49;100.00;98046.03;5041815;28;20025;-58
2022/09/12 06:09:58;;;;;;;33.58;5.90;;;;;;;17.37;100.00;98046.91;5041695;28;20017;-58
2022/09/12 06:12:25;;;;;;;28.58;5.00;;;;;;;17.75;100.00;98051.31;5042828;28;20044;-57
2022/09/12 06:14:51;;;;;;;30.23;4.85;;;;;;;17.58;100.00;98051.66;5040031;28;20025;-57
2022/09/12 06:17:17;;;;;;;27.80;5.35;;;;;;;17.57;100.00;98048.19;5034960;28;20049;-61
2022/09/12 06:19:43;;;;;;;23.75;4.50;;;;;;;18.57;100.00;98048.22;5040246;28;20049;-59
2022/09/12 06:22:08;;;;;;;32.33;5.72;;;;;;;17.89;100.00;98043.31;5038930;28;20057;-56
2022/09/12 06:24:34;;;;;;;24.80;4.90;;;;;;;18.92;100.00;98039.50;5039373;28;20053;-57
2022/09/12 06:27:01;;;;;;;28.50;5.38;;;;;;;18.30;100.00;98052.72;5043386;28;20775;-57
2022/09/12 06:29:26;;;;;;;34.97;4.80;;;;;;;19.44;100.00;98054.91;5040076;28;20029;-56
2022/09/12 06:31:52;;;;;;;26.08;4.95;;;;;;;19.38;100.00;98044.81;5041720;28;20040;-56
2022/09/12 06:34:18;;;;;;;34.47;5.70;;;;;;;19.41;100.00;98049.88;5043114;28;20033;-56
2022/09/12 06:36:48;;;;;;;26.98;4.80;;;;;;;19.57;100.00;98046.03;5043341;28;20082;-56
2022/09/12 06:39:21;;;;;;;48.03;5.68;;;;;;;19.13;100.00;98042.34;5041463;28;20053;-59
2022/09/12 06:41:48;;;;;;;31.83;5.20;;;;;;;19.72;100.00;98042.22;5039105;28;20033;-56
2022/09/12 06:44:16;;;;;;;38.60;5.63;;;;;;;19.48;100.00;98046.75;5040713;28;20062;-57
2022/09/12 06:46:43;;;;;;;38.30;5.55;;;;;;;18.76;100.00;98043.25;5042376;28;20411;-56
2022/09/12 06:49:08;;;;;;;29.55;5.47;;;;;;;19.86;100.00;98048.28;5037654;28;20037;-56
2022/09/12 06:51:35;;;;;;;32.50;6.10;;;;;;;19.71;100.00;98035.22;5042248;28;20037;-56
2022/09/12 06:54:01;;;;;;;25.27;5.40;;;;;;;20.32;100.00;98039.31;5040102;28;20083;-57
2022/09/12 06:56:26;;;;;;;29.77;6.53;;;;;;;19.72;100.00;98044.88;5027170;28;20033;-58
2022/09/12 06:58:54;;;;;;;32.33;6.07;;;;;;;20.38;100.00;98039.69;5035268;28;20029;-57
2022/09/12 07:01:25;;;;;;;26.52;5.63;;;;;;;19.80;100.00;98039.00;5034500;28;20115;-58
2022/09/12 07:03:53;;;;;;;27.80;6.10;;;;;;;19.56;100.00;98031.97;5038153;28;20097;-57
2022/09/12 07:06:21;;;;;;;41.80;6.60;;;;;;;20.92;100.00;98026.53;5023484;28;20029;-57
2022/09/12 07:08:46;;;;;;;29.38;5.60;;;;;;;21.78;100.00;98035.19;5039592;28;20530;-57
2022/09/12 07:11:23;;;;;;;38.00;5.78;;;;;;;22.26;100.00;98039.88;5039026;28;20045;-57
2022/09/12 07:13:51;;;;;;;33.28;6.78;;;;;;;20.18;100.00;98035.97;5036027;28;20085;-56
2022/09/12 07:16:17;;;;;;;32.63;6.75;;;;;;;20.62;100.00;98035.19;5036987;28;20041;-57
2022/09/12 07:18:45;;;;;;;29.20;6.70;;;;;;;21.24;100.00;98042.38;5037134;28;20059;-57
2022/09/12 07:21:13;;;;;;;39.08;6.93;;;;;;;20.69;100.00;98036.34;5038428;28;20029;-58
2022/09/12 07:23:39;;;;;;;25.77;6.57;;;;;;;21.13;100.00;98037.97;5037946;28;20024;-58
2022/09/12 07:26:06;;;;;;;30.27;6.85;;;;;;;21.12;100.00;98035.47;5038248;28;20156;-57
2022/09/12 07:28:33;;;;;;;29.77;6.70;;;;;;;21.20;100.00;98043.63;5040436;28;20102;-56
2022/09/12 07:31:08;;;;;;;40.13;8.25;;;;;;;21.29;100.00;98042.84;5040512;28;20043;-57
2022/09/12 07:33:34;;;;;;;33.30;8.02;;;;;;;20.44;100.00;98037.47;5040053;28;20116;-58
2022/09/12 07:36:02;;;;;;;64.22;10.20;;;;;;;20.73;100.00;98036.00;5038435;28;20033;-56
2022/09/12 07:38:28;;;;;;;30.05;7.75;;;;;;;21.13;100.00;98035.31;5037594;28;20032;-58
2022/09/12 07:40:53;;;;;;;33.92;8.52;;;;;;;21.11;100.00;98037.25;5037210;28;20391;-57
2022/09/12 07:43:18;;;;;;;35.83;7.65;;;;;;;21.20;100.00;98037.47;5033071;28;20022;-57
2022/09/12 07:45:44;;;;;;;24.08;7.03;;;;;;;21.78;100.00;98040.50;5038653;28;20041;-57
2022/09/12 07:48:09;;;;;;;30.08;7.95;;;;;;;22.57;100.00;98037.13;5038557;28;20036;-57
2022/09/12 07:50:35;;;;;;;24.58;7.35;;;;;;;22.40;100.00;98035.97;5037966;28;20423;-57
2022/09/12 07:53:02;;;;;;;26.33;7.35;;;;;;;24.13;100.00;98038.72;5038718;28;20094;-58
2022/09/12 07:55:28;;;;;;;25.70;7.13;;;;;;;23.58;100.00;98040.34;5040307;28;20276;-58
2022/09/12 07:57:54;;;;;;;23.67;7.20;;;;;;;24.93;100.00;98039.78;5039995;28;20393;-59
2022/09/12 08:00:20;;;;;;;32.60;7.95;;;;;;;24.79;100.00;98043.00;5040705;28;20052;-59
2022/09/12 08:02:51;;;;;;;30.38;8.00;;;;;;;24.34;100.00;98038.50;5039654;28;20763;-59
2022/09/12 08:05:16;;;;;;;22.65;7.13;;;;;;;27.84;100.00;98052.03;5039705;28;20031;-57
2022/09/12 08:07:41;;;;;;;20.38;6.82;;;;;;;29.06;91.19;98050.81;5039374;28;20029;-57
2022/09/12 08:10:07;;;;;;;20.58;7.30;;;;;;;28.11;90.98;98052.66;5038496;28;20038;-57
2022/09/12 08:12:33;;;;;;;24.77;7.13;;;;;;;29.65;84.34;98048.31;5035819;28;20018;-57
2022/09/12 08:14:59;;;;;;;20.23;6.70;;;;;;;32.17;67.63;98064.66;5036528;28;20044;-57
2022/09/12 08:17:24;;;;;;;19.00;7.00;;;;;;;30.72;69.02;98049.75;5036394;28;20032;-57
2022/09/12 08:19:50;;;;;;;18.73;6.47;;;;;;;33.43;61.16;98060.66;5040621;28;20034;-57
2022/09/12 08:22:15;;;;;;;18.00;6.95;;;;;;;31.62;58.97;98061.81;5036614;28;20037;-57
2022/09/12 08:24:40;;;;;;;25.40;7.20;;;;;;;31.61;61.10;98065.53;5039856;28;20065;-58
2022/09/12 08:27:06;;;;;;;15.32;6.07;;;;;;;31.99;60.12;98067.84;5038068;28;20124;-59
2022/09/12 08:29:32;;;;;;;19.25;6.70;;;;;;;31.46;61.53;98059.38;5035023;28;20040;-58
2022/09/12 08:31:58;;;;;;;15.82;6.07;;;;;;;33.22;59.24;98053.59;5039159;28;20032;-59
2022/09/12 08:34:23;;;;;;;17.20;5.68;;;;;;;33.33;57.10;98061.09;5036856;28;20059;-58
2022/09/12 08:36:49;;;;;;;19.98;6.93;;;;;;;28.32;66.49;98045.88;5038026;28;20034;-57
2022/09/12 08:39:15;;;;;;;16.90;5.93;;;;;;;33.27;56.33;98052.97;5040241;28;20115;-57
2022/09/12 08:41:46;;;;;;;17.73;6.03;;;;;;;32.84;58.22;98051.44;5036823;28;20246;-57
2022/09/12 08:44:20;;;;;;;16.00;5.82;;;;;;;32.30;56.88;98047.72;5037826;28;20764;-58
2022/09/12 08:46:52;;;;;;;18.35;6.30;;;;;;;31.36;62.63;98045.38;5038256;28;20064;-58
2022/09/12 08:49:32;;;;;;;;;;;;;;;33.07;57.89;98040.25;5035209;28;20061;-53
2022/09/12 08:52:05;;;;;;;20.98;6.32;;;;;;;30.95;58.23;98033.44;5035605;28;19931;-56
2022/09/12 08:54:32;;;;;;;16.25;5.13;;;;;;;34.35;52.24;98036.38;5036697;28;20037;-56
2022/09/12 08:57:05;;;;;;;17.80;5.55;;;;;;;33.38;53.55;98033.41;5034775;28;20724;-53
2022/09/12 08:59:38;;;;;;;14.65;4.97;;;;;;;32.55;55.66;98033.66;5035914;28;20063;-54
2022/09/12 09:02:15;;;;;;;13.95;4.32;;;;;;;32.94;52.82;98027.56;5032726;28;20056;-57
2022/09/12 09:04:55;;;;;;;10.43;4.25;;;;;;;34.18;49.23;98036.03;5035694;28;20029;-57
2022/09/12 09:07:53;;;;;;;13.48;4.50;;;;;;;33.12;50.97;98035.09;5039571;28;20037;-56
2022/09/12 09:10:40;;;;;;;11.63;4.30;;;;;;;32.88;50.78;98027.53;5032879;28;20506;-54
2022/09/12 09:16:29;;;;;;;14.07;4.20;;;;;;;32.82;52.87;98029.19;5038542;28;20047;-56
2022/09/12 09:18:57;;;;;;;13.45;4.82;;;;;;;32.11;52.42;98029.56;5039097;28;20428;-56
2022/09/12 09:21:26;;;;;;;18.77;5.60;;;;;;;34.10;48.48;98030.84;5038059;28;20467;-54
2022/09/12 09:24:01;;;;;;;16.15;4.70;;;;;;;34.21;47.65;98030.19;5036179;28;20036;-58
2022/09/12 09:26:37;;;;;;;16.92;4.78;;;;;;;31.21;54.02;98014.00;5037896;28;20044;-55
2022/09/12 09:29:17;;;;;;;13.52;4.22;;;;;;;32.90;48.62;98020.06;5037636;28;20028;-53
2022/09/12 09:31:45;;;;;;;11.85;3.97;;;;;;;34.14;47.93;98022.06;5024185;28;20041;-56
2022/09/12 09:34:18;;;;;;;11.55;3.90;;;;;;;32.83;49.94;98020.91;5041906;28;20025;-55
2022/09/12 09:36:49;;;;;;;12.45;4.15;;;;;;;33.89;46.59;98027.34;5039333;28;20044;-53
2022/09/12 09:39:32;;;;;;;12.48;4.07;;;;;;;33.18;49.22;98019.94;5039000;28;20116;-53
2022/09/12 09:42:07;;;;;;;11.30;4.03;;;;;;;32.32;48.21;98024.03;5039568;28;20403;-53
2022/09/12 09:44:33;;;;;;;17.10;4.72;;;;;;;34.26;46.67;98019.56;5036569;28;20021;-55
2022/09/12 09:46:59;;;;;;;13.10;4.10;;;;;;;32.51;46.56;98013.53;5039256;28;20059;-54
2022/09/12 09:49:29;;;;;;;12.35;3.88;;;;;;;33.13;43.31;98015.13;5036567;28;20082;-53
2022/09/12 09:51:56;;;;;;;15.77;4.45;;;;;;;33.14;44.82;98006.00;5036640;28;20033;-54
2022/09/12 09:54:25;;;;;;;13.82;4.30;;;;;;;33.43;45.03;98001.19;5038735;28;20030;-55
2022/09/12 09:56:50;;;;;;;13.80;4.22;;;;;;;33.48;42.89;98000.56;5041877;28;20037;-56
2022/09/12 09:59:18;;;;;;;12.63;4.20;;;;;;;32.38;44.43;97996.22;5038513;28;20040;-56
2022/09/12 10:02:02;;;;;;;11.35;4.05;;;;;;;32.67;45.15;97991.56;5044513;28;20071;-54
2022/09/12 10:04:30;;;;;;;12.90;4.65;;;;;;;31.44;47.88;97991.34;5039812;28;20040;-55
2022/09/12 10:06:58;;;;;;;13.77;4.20;;;;;;;33.58;46.07;97992.84;5040061;28;20115;-57
2022/09/12 10:09:28;;;;;;;13.90;4.70;;;;;;;30.67;49.47;97983.00;5039671;28;20032;-56
2022/09/12 10:11:55;;;;;;;12.65;4.20;;;;;;;32.24;46.43;97986.44;5036539;28;20040;-57
2022/09/12 10:14:38;;;;;;;14.50;4.90;;;;;;;30.97;48.72;97985.59;5040975;28;20567;-56
2022/09/12 10:17:26;;;;;;;14.60;4.50;;;;;;;32.69;42.99;97978.69;5038932;28;20284;-54
2022/09/12 10:19:52;;;;;;;17.50;5.03;;;;;;;32.13;45.86;97981.63;5039781;28;20024;-56
2022/09/12 10:22:20;;;;;;;15.70;5.25;;;;;;;28.72;49.71;97983.09;5043133;28;20871;-55
2022/09/12 10:24:51;;;;;;;16.02;5.22;;;;;;;27.44;54.41;97978.81;5041288;28;20117;-55
2022/09/12 10:27:23;;;;;;;12.70;4.47;;;;;;;30.01;50.51;97983.06;5039659;28;20452;-56
2022/09/12 10:29:55;;;;;;;15.55;4.93;;;;;;;30.31;49.05;97983.00;5037082;28;20029;-55
2022/09/12 10:32:34;;;;;;;12.60;4.20;;;;;;;30.42;49.61;97979.88;5035894;28;20045;-54
2022/09/12 10:35:07;;;;;;;15.27;4.85;;;;;;;31.23;50.75;97971.53;5039604;28;20017;-55
2022/09/12 10:37:36;;;;;;;12.10;4.10;;;;;;;31.58;48.99;97985.06;5041190;28;20518;-54
2022/09/12 10:40:04;;;;;;;14.20;4.30;;;;;;;31.17;46.36;97983.06;5038515;28;20037;-55
2022/09/12 10:42:48;;;;;;;13.65;4.22;;;;;;;31.49;44.23;97983.56;5038638;28;20037;-54
2022/09/12 10:45:34;;;;;;;14.70;4.40;;;;;;;31.22;42.66;97969.03;5042426;28;20438;-54
2022/09/12 10:48:28;;;;;;;11.68;3.75;;;;;;;32.49;42.96;97977.78;5022301;28;20077;-57
2022/09/12 10:50:53;;;;;;;15.77;4.03;;;;;;;31.66;42.97;97966.00;5037170;28;20060;-57
2022/09/12 10:53:31;;;;;;;16.23;4.35;;;;;;;32.92;40.25;97964.81;5042656;28;20104;-57
2022/09/12 10:56:13;;;;;;;12.43;3.97;;;;;;;31.96;43.12;97957.66;5044070;28;20051;-57
2022/09/12 10:58:53;;;;;;;10.93;3.63;;;;;;;31.80;43.32;97966.06;5041609;28;20025;-56
2022/09/12 11:01:35;;;;;;;17.25;4.57;;;;;;;31.74;40.01;97961.50;5036303;28;20037;-54
2022/09/12 11:04:31;;;;;;;12.93;4.05;;;;;;;30.62;41.75;97960.38;5037927;28;20036;-54
2022/09/12 11:07:24;;;;;;;16.35;4.32;;;;;;;31.36;38.13;97956.47;5037212;28;20095;-57
2022/09/12 11:10:01;;;;;;;14.95;4.20;;;;;;;31.35;40.25;97957.50;5040797;28;20443;-57
2022/09/12 11:12:45;;;;;;;15.95;4.50;;;;;;;30.52;42.53;97950.75;5038092;28;20040;-57
2022/09/12 11:15:25;;;;;;;12.98;3.85;;;;;;;32.28;39.18;97942.66;5038528;28;20033;-54
2022/09/12 11:18:09;;;;;;;12.30;3.58;;;;;;;31.17;41.37;97945.34;5041285;28;20025;-54
2022/09/12 11:20:35;;;;;;;17.70;4.60;;;;;;;31.04;40.90;97942.56;5039908;28;20037;-58
2022/09/12 11:23:30;;;;;;;15.07;4.03;;;;;;;30.85;42.60;97936.78;5040128;28;20090;-57
2022/09/12 11:26:19;;;;;;;13.55;4.13;;;;;;;31.20;43.03;97939.56;5042957;28;20041;-53
2022/09/12 11:29:03;;;;;;;14.23;4.00;;;;;;;31.08;46.70;97941.97;5040871;28;20029;-57
2022/09/12 11:31:52;;;;;;;16.25;4.10;;;;;;;30.89;46.59;97938.06;5038181;28;20049;-54
2022/09/12 11:34:45;;;;;;;16.33;4.07;;;;;;;30.13;45.79;97943.09;5041123;28;20486;-54
2022/09/12 11:37:28;;;;;;;14.60;3.92;;;;;;;29.87;44.07;97939.06;5035388;28;20077;-54
2022/09/12 11:39:58;;;;;;;18.40;4.72;;;;;;;28.63;45.04;97934.03;5042450;28;20021;-54
2022/09/12 11:42:32;;;;;;;15.10;4.40;;;;;;;28.15;44.70;97925.28;5040364;28;20032;-53